createdAt,value
2017-06-26T00:00:43.988Z,1026.65
2017-06-26T00:01:43.984Z,1026.63
2017-06-26T00:02:43.983Z,1026.64
2017-06-26T00:03:43.978Z,1026.64
2017-06-26T00:04:43.974Z,1026.62
2017-06-26T00:05:43.970Z,1026.59
2017-06-26T00:06:43.964Z,1026.62
2017-06-26T00:07:43.961Z,1026.6
2017-06-26T00:08:43.959Z,1026.53
2017-06-26T00:09:43.954Z,1026.5
2017-06-26T00:10:43.948Z,1026.45
2017-06-26T00:11:43.948Z,1026.44
2017-06-26T00:12:43.942Z,1026.45
2017-06-26T00:13:43.938Z,1026.5
2017-06-26T00:14:43.936Z,1026.5
2017-06-26T00:15:43.932Z,1026.48
2017-06-26T00:16:43.929Z,1026.49
2017-06-26T00:17:43.924Z,1026.48
2017-06-26T00:18:43.919Z,1026.46
2017-06-26T00:19:43.916Z,1026.44
2017-06-26T00:20:43.911Z,1026.44
2017-06-26T00:21:43.908Z,1026.43
2017-06-26T00:22:43.906Z,1026.44
2017-06-26T00:23:43.901Z,1026.46
2017-06-26T00:24:43.898Z,1026.47
2017-06-26T00:25:43.894Z,1026.42
2017-06-26T00:26:43.889Z,1026.4
2017-06-26T00:27:43.886Z,1026.38
2017-06-26T00:28:43.881Z,1026.41
2017-06-26T00:29:43.877Z,1026.39
2017-06-26T00:30:43.876Z,1026.42
2017-06-26T00:31:43.871Z,1026.39
2017-06-26T00:32:43.866Z,1026.38
2017-06-26T00:33:43.862Z,1026.4
2017-06-26T00:34:43.859Z,1026.39
2017-06-26T00:35:43.856Z,1026.37
2017-06-26T00:36:43.851Z,1026.37
2017-06-26T00:37:43.849Z,1026.39
2017-06-26T00:38:43.843Z,1026.38
2017-06-26T00:39:43.839Z,1026.36
2017-06-26T00:40:43.835Z,1026.36
2017-06-26T00:41:43.832Z,1026.4
2017-06-26T00:42:43.829Z,1026.43
2017-06-26T00:43:43.847Z,1026.37
2017-06-26T00:44:43.822Z,1026.34
2017-06-26T00:45:43.818Z,1026.36
2017-06-26T00:46:43.814Z,1026.35
2017-06-26T00:47:43.808Z,1026.34
2017-06-26T00:48:43.804Z,1026.33
2017-06-26T00:49:43.801Z,1026.29
2017-06-26T00:50:43.798Z,1026.36
2017-06-26T00:51:43.794Z,1026.37
2017-06-26T00:52:43.791Z,1026.38
2017-06-26T00:53:43.809Z,1026.39
2017-06-26T00:54:43.782Z,1026.36
2017-06-26T00:55:43.778Z,1026.34
2017-06-26T00:56:43.774Z,1026.33
2017-06-26T00:57:43.770Z,1026.31
2017-06-26T00:58:43.767Z,1026.34
2017-06-26T00:59:43.762Z,1026.32
2017-06-26T01:00:43.759Z,1026.34
2017-06-26T01:01:43.754Z,1026.28
2017-06-26T01:02:43.751Z,1026.29
2017-06-26T01:03:43.749Z,1026.3
2017-06-26T01:04:43.744Z,1026.29
2017-06-26T01:05:43.740Z,1026.38
2017-06-26T01:06:43.736Z,1026.37
2017-06-26T01:07:43.734Z,1026.41
2017-06-26T01:08:43.728Z,1026.43
2017-06-26T01:09:43.724Z,1026.4
2017-06-26T01:10:43.722Z,1026.41
2017-06-26T01:11:43.719Z,1026.31
2017-06-26T01:12:43.715Z,1026.22
2017-06-26T01:13:43.712Z,1026.31
2017-06-26T01:14:43.707Z,1026.45
2017-06-26T01:15:43.702Z,1026.54
2017-06-26T01:16:43.699Z,1026.56
2017-06-26T01:17:43.695Z,1026.6
2017-06-26T01:18:43.692Z,1026.7
2017-06-26T01:19:43.689Z,1026.73
2017-06-26T01:20:43.685Z,1026.74
2017-06-26T01:21:43.681Z,1026.78
2017-06-26T01:22:43.675Z,1026.8
2017-06-26T01:23:43.672Z,1026.81
2017-06-26T01:24:43.671Z,1026.8
2017-06-26T01:25:43.666Z,1026.79
2017-06-26T01:26:43.660Z,1026.79
2017-06-26T01:27:43.659Z,1026.78
2017-06-26T01:28:43.653Z,1026.77
2017-06-26T01:29:43.649Z,1026.8
2017-06-26T01:30:43.646Z,1026.79
2017-06-26T01:31:43.642Z,1026.82
2017-06-26T01:32:43.639Z,1026.75
2017-06-26T01:33:43.633Z,1026.82
2017-06-26T01:34:43.628Z,1026.78
2017-06-26T01:35:43.642Z,1026.83
2017-06-26T01:36:43.622Z,1026.81
2017-06-26T01:37:43.616Z,1026.78
2017-06-26T01:38:43.613Z,1026.72
2017-06-26T01:39:43.610Z,1026.67
2017-06-26T01:40:43.607Z,1026.72
2017-06-26T01:41:43.601Z,1026.7
2017-06-26T01:42:43.597Z,1026.68
2017-06-26T01:43:43.593Z,1026.68
2017-06-26T01:44:43.587Z,1026.73
2017-06-26T01:45:43.584Z,1026.75
2017-06-26T01:46:43.583Z,1026.76
2017-06-26T01:47:43.579Z,1026.74
2017-06-26T01:48:43.574Z,1026.73
2017-06-26T01:49:43.571Z,1026.72
2017-06-26T01:50:43.566Z,1026.69
2017-06-26T01:51:43.562Z,1026.72
2017-06-26T01:52:43.557Z,1026.74
2017-06-26T01:53:43.554Z,1026.64
2017-06-26T01:54:43.549Z,1026.6
2017-06-26T01:55:43.544Z,1026.55
2017-06-26T01:56:43.540Z,1026.51
2017-06-26T01:57:43.536Z,1026.5
2017-06-26T01:58:43.534Z,1026.44
2017-06-26T01:59:43.529Z,1026.41
2017-06-26T02:00:43.525Z,1026.42
2017-06-26T02:01:43.520Z,1026.31
2017-06-26T02:02:43.516Z,1026.25
2017-06-26T02:03:43.512Z,1026.2
2017-06-26T02:04:43.508Z,1026.11
2017-06-26T02:05:43.504Z,1026.12
2017-06-26T02:06:43.501Z,1026.11
2017-06-26T02:07:43.496Z,1026.02
2017-06-26T02:08:43.492Z,1025.99
2017-06-26T02:09:43.488Z,1026
2017-06-26T02:10:43.483Z,1026.02
2017-06-26T02:11:43.498Z,1026.07
2017-06-26T02:12:43.476Z,1025.99
2017-06-26T02:13:43.472Z,1025.99
2017-06-26T02:14:43.469Z,1025.95
2017-06-26T02:15:43.465Z,1025.91
2017-06-26T02:16:43.460Z,1025.87
2017-06-26T02:17:43.455Z,1025.89
2017-06-26T02:18:43.452Z,1025.88
2017-06-26T02:19:43.449Z,1025.82
2017-06-26T02:20:43.446Z,1025.85
2017-06-26T02:21:43.445Z,1025.83
2017-06-26T02:22:43.436Z,1025.84
2017-06-26T02:23:43.431Z,1025.89
2017-06-26T02:24:43.428Z,1025.86
2017-06-26T02:25:43.423Z,1025.86
2017-06-26T02:26:43.442Z,1025.87
2017-06-26T02:27:43.417Z,1025.89
2017-06-26T02:28:43.412Z,1025.89
2017-06-26T02:29:43.409Z,1025.9
2017-06-26T02:30:43.404Z,1025.91
2017-06-26T02:31:43.400Z,1025.89
2017-06-26T02:32:43.395Z,1025.87
2017-06-26T02:33:43.391Z,1025.84
2017-06-26T02:34:43.390Z,1025.84
2017-06-26T02:35:43.407Z,1025.83
2017-06-26T02:36:43.381Z,1025.88
2017-06-26T02:37:43.376Z,1025.89
2017-06-26T02:38:43.372Z,1025.87
2017-06-26T02:39:43.367Z,1025.93
2017-06-26T02:40:43.363Z,1025.96
2017-06-26T02:41:43.361Z,1025.96
2017-06-26T02:42:43.357Z,1025.95
2017-06-26T02:43:43.351Z,1025.93
2017-06-26T02:44:43.348Z,1025.92
2017-06-26T02:45:43.345Z,1025.91
2017-06-26T02:46:43.341Z,1025.86
2017-06-26T02:47:43.338Z,1025.83
2017-06-26T02:48:43.335Z,1025.83
2017-06-26T02:49:43.331Z,1025.76
2017-06-26T02:50:43.327Z,1025.74
2017-06-26T02:51:43.322Z,1025.73
2017-06-26T02:52:43.317Z,1025.7
2017-06-26T02:53:43.313Z,1025.68
2017-06-26T02:54:43.310Z,1025.63
2017-06-26T02:55:43.307Z,1025.61
2017-06-26T02:56:43.303Z,1025.54
2017-06-26T02:57:43.298Z,1025.55
2017-06-26T02:58:43.293Z,1025.51
2017-06-26T02:59:43.290Z,1025.48
2017-06-26T03:00:43.286Z,1025.49
2017-06-26T03:01:43.281Z,1025.53
2017-06-26T03:02:43.278Z,1025.5
2017-06-26T03:03:43.276Z,1025.54
2017-06-26T03:04:43.273Z,1025.49
2017-06-26T03:05:43.292Z,1025.49
2017-06-26T03:06:43.262Z,1025.45
2017-06-26T03:07:43.258Z,1025.41
2017-06-26T03:08:43.254Z,1025.4
2017-06-26T03:09:43.250Z,1025.41
2017-06-26T03:10:43.250Z,1025.42
2017-06-26T03:11:43.243Z,1025.41
2017-06-26T03:12:43.239Z,1025.36
2017-06-26T03:13:43.235Z,1025.37
2017-06-26T03:14:43.231Z,1025.35
2017-06-26T03:15:43.226Z,1025.36
2017-06-26T03:16:43.223Z,1025.35
2017-06-26T03:17:43.219Z,1025.37
2017-06-26T03:18:43.217Z,1025.36
2017-06-26T03:19:43.211Z,1025.32
2017-06-26T03:20:43.209Z,1025.28
2017-06-26T03:21:43.205Z,1025.26
2017-06-26T03:22:43.200Z,1025.21
2017-06-26T03:23:43.195Z,1025.2
2017-06-26T03:24:43.216Z,1025.19
2017-06-26T03:25:43.188Z,1025.21
2017-06-26T03:26:43.185Z,1025.21
2017-06-26T03:27:43.182Z,1025.24
2017-06-26T03:28:43.178Z,1025.28
2017-06-26T03:29:43.174Z,1025.28
2017-06-26T03:30:43.168Z,1025.27
2017-06-26T03:31:43.165Z,1025.28
2017-06-26T03:32:43.162Z,1025.29
2017-06-26T03:33:43.159Z,1025.26
2017-06-26T03:34:43.153Z,1025.26
2017-06-26T03:35:43.149Z,1025.22
2017-06-26T03:36:43.145Z,1025.18
2017-06-26T03:37:43.142Z,1025.16
2017-06-26T03:38:43.139Z,1025.15
2017-06-26T03:39:43.136Z,1025.19
2017-06-26T03:40:43.132Z,1025.16
2017-06-26T03:41:43.126Z,1025.16
2017-06-26T03:42:43.122Z,1025.17
2017-06-26T03:43:43.118Z,1025.17
2017-06-26T03:44:43.115Z,1025.12
2017-06-26T03:45:43.111Z,1025.09
2017-06-26T03:46:43.108Z,1025.04
2017-06-26T03:47:43.106Z,1025.03
2017-06-26T03:48:43.102Z,1024.96
2017-06-26T03:49:43.100Z,1024.95
2017-06-26T03:50:43.091Z,1024.95
2017-06-26T03:51:43.089Z,1024.91
2017-06-26T03:52:43.085Z,1024.91
2017-06-26T03:53:43.081Z,1024.9
2017-06-26T03:54:43.078Z,1024.92
2017-06-26T03:55:43.075Z,1024.87
2017-06-26T03:56:43.072Z,1024.89
2017-06-26T03:57:43.068Z,1024.83
2017-06-26T03:58:43.065Z,1024.8
2017-06-26T03:59:43.061Z,1024.72
2017-06-26T04:00:43.056Z,1024.7
2017-06-26T04:01:43.053Z,1024.66
2017-06-26T04:02:43.049Z,1024.65
2017-06-26T04:03:43.045Z,1024.65
2017-06-26T04:04:43.041Z,1024.57
2017-06-26T04:05:43.038Z,1024.56
2017-06-26T04:06:43.037Z,1024.51
2017-06-26T04:07:43.031Z,1024.49
2017-06-26T04:08:43.028Z,1024.51
2017-06-26T04:09:43.026Z,1024.52
2017-06-26T04:10:43.021Z,1024.49
2017-06-26T04:11:43.017Z,1024.46
2017-06-26T04:12:43.014Z,1024.43
2017-06-26T04:13:43.013Z,1024.43
2017-06-26T04:14:43.008Z,1024.45
2017-06-26T04:15:43.005Z,1024.44
2017-06-26T04:16:43.001Z,1024.42
2017-06-26T04:17:42.999Z,1024.42
2017-06-26T04:18:42.993Z,1024.37
2017-06-26T04:19:42.990Z,1024.32
2017-06-26T04:20:42.988Z,1024.3
2017-06-26T04:21:42.985Z,1024.27
2017-06-26T04:22:42.983Z,1024.26
2017-06-26T04:23:42.979Z,1024.23
2017-06-26T04:24:42.976Z,1024.21
2017-06-26T04:25:42.971Z,1024.24
2017-06-26T04:26:42.970Z,1024.19
2017-06-26T04:27:42.967Z,1024.16
2017-06-26T04:28:42.963Z,1024.13
2017-06-26T04:29:42.960Z,1024.11
2017-06-26T04:30:42.956Z,1024.09
2017-06-26T04:31:42.953Z,1024.09
2017-06-26T04:32:42.949Z,1024.06
2017-06-26T04:33:42.946Z,1024.05
2017-06-26T04:34:42.945Z,1024.02
2017-06-26T04:35:42.941Z,1023.97
2017-06-26T04:36:42.938Z,1024
2017-06-26T04:37:42.935Z,1023.98
2017-06-26T04:38:42.932Z,1023.98
2017-06-26T04:39:42.928Z,1023.93
2017-06-26T04:40:42.927Z,1023.96
2017-06-26T04:41:42.922Z,1023.95
2017-06-26T04:42:42.921Z,1023.94
2017-06-26T04:43:42.917Z,1023.92
2017-06-26T04:44:42.913Z,1023.9
2017-06-26T04:45:42.911Z,1023.9
2017-06-26T04:46:42.907Z,1023.84
2017-06-26T04:47:42.903Z,1023.83
2017-06-26T04:48:42.900Z,1023.79
2017-06-26T04:49:42.900Z,1023.8
2017-06-26T04:50:42.896Z,1023.76
2017-06-26T04:51:42.892Z,1023.72
2017-06-26T04:52:42.889Z,1023.66
2017-06-26T04:53:42.887Z,1023.59
2017-06-26T04:54:42.883Z,1023.49
2017-06-26T04:55:42.881Z,1023.44
2017-06-26T04:56:42.878Z,1023.41
2017-06-26T04:57:42.877Z,1023.4
2017-06-26T04:58:42.871Z,1023.34
2017-06-26T04:59:42.870Z,1023.31
2017-06-26T05:00:42.867Z,1023.33
2017-06-26T05:01:42.864Z,1023.32
2017-06-26T05:02:42.862Z,1023.35
2017-06-26T05:03:42.860Z,1023.38
2017-06-26T05:04:42.858Z,1023.37
2017-06-26T05:05:42.854Z,1023.31
2017-06-26T05:06:42.851Z,1023.36
2017-06-26T05:07:42.848Z,1023.27
2017-06-26T05:08:42.845Z,1023.23
2017-06-26T05:09:42.843Z,1023.13
2017-06-26T05:10:42.842Z,1023.09
2017-06-26T05:11:42.839Z,1023.04
2017-06-26T05:12:42.838Z,1023.08
2017-06-26T05:13:42.835Z,1022.99
2017-06-26T05:14:42.831Z,1022.92
2017-06-26T05:15:42.830Z,1022.89
2017-06-26T05:16:42.829Z,1022.92
2017-06-26T05:17:42.825Z,1022.98
2017-06-26T05:18:42.823Z,1022.99
2017-06-26T05:19:42.821Z,1023.08
2017-06-26T05:20:42.817Z,1022.97
2017-06-26T05:21:42.817Z,1022.93
2017-06-26T05:22:42.815Z,1022.79
2017-06-26T05:23:42.813Z,1022.65
2017-06-26T05:24:42.811Z,1022.38
2017-06-26T05:25:42.811Z,1021.91
2017-06-26T05:26:42.807Z,1021.77
2017-06-26T05:27:42.804Z,1021.75
2017-06-26T05:28:42.803Z,1021.82
2017-06-26T05:29:42.801Z,1021.91
2017-06-26T05:30:42.801Z,1022.03
2017-06-26T05:31:42.800Z,1022.04
2017-06-26T05:32:42.798Z,1022.06
2017-06-26T05:33:42.798Z,1022.13
2017-06-26T05:34:42.795Z,1022.21
2017-06-26T05:35:42.793Z,1022.28
2017-06-26T05:36:42.793Z,1022.38
2017-06-26T05:37:42.791Z,1022.47
2017-06-26T05:38:42.790Z,1022.51
2017-06-26T05:39:42.791Z,1022.6
2017-06-26T05:40:42.788Z,1022.67
2017-06-26T05:41:42.787Z,1022.75
2017-06-26T05:42:42.785Z,1022.73
2017-06-26T05:43:42.786Z,1022.68
2017-06-26T05:44:42.783Z,1022.67
2017-06-26T05:45:42.783Z,1022.62
2017-06-26T05:46:42.780Z,1022.67
2017-06-26T05:47:42.779Z,1022.71
2017-06-26T05:48:42.778Z,1022.76
2017-06-26T05:49:42.776Z,1022.91
2017-06-26T05:50:42.776Z,1023.01
2017-06-26T05:51:42.775Z,1023.16
2017-06-26T05:52:42.774Z,1023.31
2017-06-26T05:53:42.770Z,1023.43
2017-06-26T05:54:42.769Z,1023.42
2017-06-26T05:55:42.794Z,1023.39
2017-06-26T05:56:42.766Z,1023.33
2017-06-26T05:57:42.764Z,1023.22
2017-06-26T05:58:42.765Z,1023.16
2017-06-26T05:59:42.763Z,1023.16
2017-06-26T06:00:42.759Z,1023.15
2017-06-26T06:01:42.759Z,1023.19
2017-06-26T06:02:42.756Z,1023.15
2017-06-26T06:03:42.755Z,1023.13
2017-06-26T06:04:42.752Z,1023.22
2017-06-26T06:05:42.751Z,1023.29
2017-06-26T06:06:42.749Z,1023.3
2017-06-26T06:07:42.746Z,1023.32
2017-06-26T06:08:42.747Z,1023.3
2017-06-26T06:09:42.744Z,1023.32
2017-06-26T06:10:42.742Z,1023.32
2017-06-26T06:11:42.740Z,1023.37
2017-06-26T06:12:42.739Z,1023.42
2017-06-26T06:13:42.736Z,1023.48
2017-06-26T06:14:42.734Z,1023.49
2017-06-26T06:15:42.732Z,1023.5
2017-06-26T06:16:42.730Z,1023.44
2017-06-26T06:17:42.728Z,1023.45
2017-06-26T06:18:42.727Z,1023.45
2017-06-26T06:19:42.725Z,1023.44
2017-06-26T06:20:42.724Z,1023.31
2017-06-26T06:21:42.720Z,1023.16
2017-06-26T06:22:42.717Z,1023.11
2017-06-26T06:23:42.715Z,1023.04
2017-06-26T06:24:42.714Z,1023.01
2017-06-26T06:25:42.712Z,1022.99
2017-06-26T06:26:42.711Z,1022.98
2017-06-26T06:27:42.709Z,1022.93
2017-06-26T06:28:42.707Z,1022.92
2017-06-26T06:29:42.705Z,1022.87
2017-06-26T06:30:42.702Z,1022.83
2017-06-26T06:31:42.700Z,1022.73
2017-06-26T06:32:42.700Z,1022.72
2017-06-26T06:33:42.697Z,1022.7
2017-06-26T06:34:42.695Z,1022.71
2017-06-26T06:35:42.695Z,1022.7
2017-06-26T06:36:42.692Z,1022.68
2017-06-26T06:37:42.693Z,1022.68
2017-06-26T06:38:42.690Z,1022.79
2017-06-26T06:39:42.688Z,1022.88
2017-06-26T06:40:42.686Z,1022.89
2017-06-26T06:41:42.684Z,1022.9
2017-06-26T06:42:42.681Z,1022.93
2017-06-26T06:43:42.680Z,1022.93
2017-06-26T06:44:42.678Z,1023
2017-06-26T06:45:42.677Z,1023.04
2017-06-26T06:46:42.676Z,1023.06
2017-06-26T06:47:42.676Z,1023.06
2017-06-26T06:48:42.673Z,1023.06
2017-06-26T06:49:42.672Z,1023.01
2017-06-26T06:50:42.669Z,1022.98
2017-06-26T06:51:42.666Z,1022.81
2017-06-26T06:52:42.665Z,1022.61
2017-06-26T06:53:42.663Z,1022.42
2017-06-26T06:54:42.665Z,1022.45
2017-06-26T06:55:42.661Z,1022.46
2017-06-26T06:56:42.661Z,1022.49
2017-06-26T06:57:42.657Z,1022.43
2017-06-26T06:58:42.657Z,1022.52
2017-06-26T06:59:42.656Z,1022.5
2017-06-26T07:00:42.655Z,1022.52
2017-06-26T07:01:42.654Z,1022.64
2017-06-26T07:02:42.650Z,1022.62
2017-06-26T07:03:42.650Z,1022.65
2017-06-26T07:04:42.647Z,1022.64
2017-06-26T07:05:42.647Z,1022.61
2017-06-26T07:06:42.646Z,1022.56
2017-06-26T07:07:42.645Z,1022.58
2017-06-26T07:08:42.644Z,1022.57
2017-06-26T07:09:42.641Z,1022.66
2017-06-26T07:10:42.639Z,1022.74
2017-06-26T07:11:42.638Z,1022.88
2017-06-26T07:12:42.637Z,1023.06
2017-06-26T07:13:42.636Z,1023.4
2017-06-26T07:14:42.636Z,1023.86
2017-06-26T07:15:42.635Z,1024.3
2017-06-26T07:16:42.633Z,1024.74
2017-06-26T07:17:42.631Z,1025.02
2017-06-26T07:18:42.628Z,1025.24
2017-06-26T07:19:42.652Z,1025.47
2017-06-26T07:20:42.625Z,1025.88
2017-06-26T07:21:42.622Z,1025.96
2017-06-26T07:22:42.622Z,1026.38
2017-06-26T07:23:42.619Z,1026.25
2017-06-26T07:24:42.616Z,1026.49
2017-06-26T07:25:42.613Z,1026.6
2017-06-26T07:26:42.612Z,1026.72
2017-06-26T07:27:42.609Z,1026.84
2017-06-26T07:28:42.609Z,1026.95
2017-06-26T07:29:42.603Z,1026.98
2017-06-26T07:30:42.598Z,1026.92
2017-06-26T07:31:42.595Z,1027.03
2017-06-26T07:32:42.592Z,1026.97
2017-06-26T07:33:42.589Z,1027
2017-06-26T07:34:42.587Z,1027.03
2017-06-26T07:35:42.584Z,1026.93
2017-06-26T07:36:42.579Z,1027.03
2017-06-26T07:37:42.575Z,1027.04
2017-06-26T07:38:42.569Z,1026.98
2017-06-26T07:39:42.564Z,1026.99
2017-06-26T07:40:42.561Z,1026.98
2017-06-26T07:41:42.557Z,1026.98
2017-06-26T07:42:42.553Z,1026.9
2017-06-26T07:43:42.552Z,1026.94
2017-06-26T07:44:42.545Z,1026.91
2017-06-26T07:45:42.542Z,1027.01
2017-06-26T07:46:42.535Z,1027.13
2017-06-26T07:47:42.531Z,1027.05
2017-06-26T07:48:42.528Z,1027.09
2017-06-26T07:49:42.524Z,1027.11
2017-06-26T07:50:42.517Z,1027.02
2017-06-26T07:51:42.514Z,1026.98
2017-06-26T07:52:42.508Z,1026.82
2017-06-26T07:53:42.503Z,1026.61
2017-06-26T07:54:42.501Z,1026.37
2017-06-26T07:55:42.497Z,1025.98
2017-06-26T07:56:42.493Z,1025.84
2017-06-26T07:57:42.486Z,1024.77
2017-06-26T07:58:42.482Z,1023.68
2017-06-26T07:59:42.479Z,1021.82
2017-06-26T08:00:42.477Z,1020.74
2017-06-26T08:01:42.472Z,1020.76
2017-06-26T08:02:42.471Z,1021
2017-06-26T08:03:42.469Z,1020.88
2017-06-26T08:04:42.466Z,1020.95
2017-06-26T08:05:42.466Z,1020.45
2017-06-26T08:06:42.464Z,1019.62
2017-06-26T08:07:42.463Z,1019.54
2017-06-26T08:08:42.462Z,1018.74
2017-06-26T08:09:42.463Z,1019.16
2017-06-26T08:10:42.466Z,1018.74
2017-06-26T08:11:42.468Z,1018.11
2017-06-26T08:12:42.470Z,1019.14
2017-06-26T08:13:42.473Z,1019.47
2017-06-26T08:14:42.476Z,1019.48
2017-06-26T08:15:42.480Z,1018.88
2017-06-26T08:16:42.483Z,1018.17
2017-06-26T08:17:42.489Z,1018.8
2017-06-26T08:18:42.492Z,1018.94
2017-06-26T08:19:42.497Z,1019.25
2017-06-26T08:20:42.503Z,1019.12
2017-06-26T08:21:42.509Z,1019.79
2017-06-26T08:22:42.516Z,1020.23
2017-06-26T08:23:42.521Z,1020.48
2017-06-26T08:24:42.527Z,1020.74
2017-06-26T08:25:42.532Z,1020.99
2017-06-26T08:26:42.537Z,1021.49
2017-06-26T08:27:42.541Z,1021.68
2017-06-26T08:28:42.546Z,1021.64
2017-06-26T08:29:42.552Z,1022.12
2017-06-26T08:30:42.558Z,1021.72
2017-06-26T08:31:42.564Z,1021.8
2017-06-26T08:32:42.566Z,1021.77
2017-06-26T08:33:42.572Z,1021.76
2017-06-26T08:34:42.575Z,1021.79
2017-06-26T08:35:42.579Z,1021.84
2017-06-26T08:36:42.584Z,1021.77
2017-06-26T08:37:42.588Z,1021.3
2017-06-26T08:38:42.594Z,1021.23
2017-06-26T08:39:42.602Z,1021.41
2017-06-26T08:40:42.602Z,1021.66
2017-06-26T08:41:42.606Z,1021.71
2017-06-26T08:42:42.612Z,1021.61
2017-06-26T08:43:42.617Z,1022
2017-06-26T08:44:42.621Z,1021.66
2017-06-26T08:45:42.625Z,1021.2
2017-06-26T08:46:42.628Z,1020.12
2017-06-26T08:47:42.633Z,1019.92
2017-06-26T08:48:42.637Z,1018.71
2017-06-26T08:49:42.643Z,1018.19
2017-06-26T08:50:42.650Z,1017.72
2017-06-26T08:51:42.656Z,1017.35
2017-06-26T08:52:42.664Z,1017.19
2017-06-26T08:53:42.670Z,1017.1
2017-06-26T08:54:42.678Z,1017.03
2017-06-26T08:55:42.685Z,1016.94
2017-06-26T08:56:42.695Z,1017.04
2017-06-26T08:57:42.702Z,1017.32
2017-06-26T08:58:42.712Z,1017.87
2017-06-26T08:59:42.720Z,1018.2
2017-06-26T09:00:42.731Z,1018.67
2017-06-26T09:01:42.740Z,1018.97
2017-06-26T09:02:42.748Z,1019.23
2017-06-26T09:03:42.758Z,1019.59
2017-06-26T09:04:42.767Z,1020.16
2017-06-26T09:05:42.777Z,1020.4
2017-06-26T09:06:42.785Z,1020.59
2017-06-26T09:07:42.795Z,1020.91
2017-06-26T09:08:42.804Z,1021.22
2017-06-26T09:09:43.114Z,1021.45
2017-06-26T09:10:42.822Z,1021.58
2017-06-26T09:11:42.831Z,1021.68
2017-06-26T09:12:42.839Z,1021.67
2017-06-26T09:13:42.853Z,1021.66
2017-06-26T09:14:42.854Z,1021.65
2017-06-26T09:15:42.862Z,1021.71
2017-06-26T09:16:42.869Z,1021.7
2017-06-26T09:17:42.876Z,1021.73
2017-06-26T09:18:42.888Z,1021.7
2017-06-26T09:19:42.893Z,1021.75
2017-06-26T09:20:42.901Z,1021.75
2017-06-26T09:21:42.907Z,1021.79
2017-06-26T09:22:42.916Z,1021.9
2017-06-26T09:23:42.920Z,1022
2017-06-26T09:24:42.927Z,1022.2
2017-06-26T09:25:42.934Z,1022.29
2017-06-26T09:26:42.942Z,1022.33
2017-06-26T09:27:42.949Z,1022.38
2017-06-26T09:28:42.954Z,1022.42
2017-06-26T09:29:42.960Z,1022.48
2017-06-26T09:30:42.967Z,1022.52
2017-06-26T09:31:42.973Z,1022.54
2017-06-26T09:32:42.978Z,1022.48
2017-06-26T09:33:42.988Z,1022.44
2017-06-26T09:34:42.990Z,1022.66
2017-06-26T09:35:42.996Z,1022.64
2017-06-26T09:36:43.001Z,1022.63
2017-06-26T09:37:43.007Z,1022.62
2017-06-26T09:38:43.015Z,1022.61
2017-06-26T09:39:43.021Z,1022.67
2017-06-26T09:40:43.025Z,1022.63
2017-06-26T09:41:43.035Z,1022.59
2017-06-26T09:42:43.035Z,1022.61
2017-06-26T09:43:43.040Z,1022.6
2017-06-26T09:44:43.046Z,1022.54
2017-06-26T09:45:43.051Z,1022.59
2017-06-26T09:46:43.059Z,1022.62
2017-06-26T09:47:43.063Z,1022.65
2017-06-26T09:48:43.069Z,1022.69
2017-06-26T09:49:43.075Z,1022.75
2017-06-26T09:50:43.078Z,1022.7
2017-06-26T09:51:43.083Z,1022.73
2017-06-26T09:52:43.088Z,1022.79
2017-06-26T09:53:43.094Z,1022.73
2017-06-26T09:54:43.099Z,1022.86
2017-06-26T09:55:43.106Z,1022.82
2017-06-26T09:56:43.111Z,1022.87
2017-06-26T09:57:43.116Z,1022.86
2017-06-26T09:58:43.119Z,1022.92
2017-06-26T09:59:43.125Z,1022.98
2017-06-26T10:00:43.131Z,1022.98
2017-06-26T10:01:43.134Z,1022.94
2017-06-26T10:02:43.142Z,1022.91
2017-06-26T10:03:43.147Z,1022.86
2017-06-26T10:04:43.151Z,1022.7
2017-06-26T10:05:43.156Z,1022.63
2017-06-26T10:06:43.160Z,1022.62
2017-06-26T10:07:43.165Z,1022.6
2017-06-26T10:08:43.171Z,1022.65
2017-06-26T10:09:43.174Z,1022.8
2017-06-26T10:10:43.181Z,1022.96
2017-06-26T10:11:43.188Z,1023.26
2017-06-26T10:12:43.192Z,1023.58
2017-06-26T10:13:43.196Z,1023.75
2017-06-26T10:14:43.199Z,1023.94
2017-06-26T10:15:43.206Z,1024.15
2017-06-26T10:16:43.209Z,1024.36
2017-06-26T10:17:43.214Z,1024.63
2017-06-26T10:18:43.220Z,1024.81
2017-06-26T10:19:43.224Z,1024.92
2017-06-26T10:20:43.228Z,1025.01
2017-06-26T10:21:43.231Z,1025.07
2017-06-26T10:22:43.236Z,1025.18
2017-06-26T10:23:43.263Z,1025.15
2017-06-26T10:24:43.242Z,1025.31
2017-06-26T10:25:43.246Z,1025.42
2017-06-26T10:26:43.247Z,1025.31
2017-06-26T10:27:43.250Z,1025.24
2017-06-26T10:28:43.253Z,1025.14
2017-06-26T10:29:43.255Z,1025.24
2017-06-26T10:30:43.259Z,1025.36
2017-06-26T10:31:43.261Z,1025.45
2017-06-26T10:32:43.264Z,1025.48
2017-06-26T10:33:43.268Z,1025.54
2017-06-26T10:34:43.266Z,1025.49
2017-06-26T10:35:43.268Z,1025.41
2017-06-26T10:36:43.270Z,1025.36
2017-06-26T10:37:43.272Z,1025.2
2017-06-26T10:38:43.275Z,1025
2017-06-26T10:39:43.277Z,1024.95
2017-06-26T10:40:43.279Z,1024.89
2017-06-26T10:41:43.281Z,1024.72
2017-06-26T10:42:43.281Z,1024.82
2017-06-26T10:43:43.283Z,1024.76
2017-06-26T10:44:43.286Z,1024.88
2017-06-26T10:45:43.286Z,1024.91
2017-06-26T10:46:43.290Z,1024.91
2017-06-26T10:47:43.292Z,1025.01
2017-06-26T10:48:43.293Z,1025.15
2017-06-26T10:49:43.294Z,1025.17
2017-06-26T10:50:43.297Z,1025.19
2017-06-26T10:51:43.299Z,1025.21
2017-06-26T10:52:43.299Z,1025.15
2017-06-26T10:53:43.302Z,1025.22
2017-06-26T10:54:43.303Z,1025.13
2017-06-26T10:55:43.304Z,1025.09
2017-06-26T10:56:43.305Z,1025.02
2017-06-26T10:57:43.307Z,1024.98
2017-06-26T10:58:43.310Z,1025.09
2017-06-26T10:59:43.313Z,1025.06
2017-06-26T11:00:43.314Z,1024.94
2017-06-26T11:01:43.317Z,1024.83
2017-06-26T11:02:43.316Z,1024.72
2017-06-26T11:03:43.318Z,1024.54
2017-06-26T11:04:43.320Z,1024.61
2017-06-26T11:05:43.322Z,1024.74
2017-06-26T11:06:43.325Z,1024.77
2017-06-26T11:07:43.328Z,1024.75
2017-06-26T11:08:43.330Z,1024.61
2017-06-26T11:09:43.333Z,1024.45
2017-06-26T11:10:43.333Z,1024.44
2017-06-26T11:11:43.335Z,1024.47
2017-06-26T11:12:43.337Z,1024.43
2017-06-26T11:13:43.341Z,1024.49
2017-06-26T11:14:43.341Z,1024.48
2017-06-26T11:15:43.344Z,1024.37
2017-06-26T11:16:43.347Z,1024.27
2017-06-26T11:17:43.349Z,1024.17
2017-06-26T11:18:43.353Z,1023.92
2017-06-26T11:19:43.355Z,1023.76
2017-06-26T11:20:43.359Z,1023.73
2017-06-26T11:21:43.362Z,1023.83
2017-06-26T11:22:43.363Z,1023.87
2017-06-26T11:23:43.366Z,1023.95
2017-06-26T11:24:43.369Z,1024.13
2017-06-26T11:25:43.371Z,1024.08
2017-06-26T11:26:43.376Z,1024.11
2017-06-26T11:27:43.380Z,1024.15
2017-06-26T11:28:43.383Z,1024.24
2017-06-26T11:29:43.385Z,1024.35
2017-06-26T11:30:43.388Z,1024.28
2017-06-26T11:31:43.393Z,1024.23
2017-06-26T11:32:43.394Z,1024.24
2017-06-26T11:33:43.397Z,1024.15
2017-06-26T11:34:43.402Z,1024.29
2017-06-26T11:35:43.404Z,1024.34
2017-06-26T11:36:43.407Z,1024.43
2017-06-26T11:37:43.410Z,1024.54
2017-06-26T11:38:43.411Z,1024.67
2017-06-26T11:39:43.416Z,1024.77
2017-06-26T11:40:43.418Z,1024.92
2017-06-26T11:41:43.421Z,1025.04
2017-06-26T11:42:43.423Z,1025.02
2017-06-26T11:43:43.424Z,1025.11
2017-06-26T11:44:43.426Z,1025.2
2017-06-26T11:45:43.429Z,1025.22
2017-06-26T11:46:43.433Z,1025.32
2017-06-26T11:47:43.435Z,1025.34
2017-06-26T11:48:43.437Z,1025.42
2017-06-26T11:49:43.439Z,1025.41
2017-06-26T11:50:43.440Z,1025.43
2017-06-26T11:51:43.441Z,1025.37
2017-06-26T11:52:43.443Z,1025.33
2017-06-26T11:53:43.445Z,1025.25
2017-06-26T11:54:43.449Z,1025.3
2017-06-26T11:55:43.451Z,1025.13
2017-06-26T11:56:43.451Z,1025.14
2017-06-26T11:57:43.453Z,1025.17
2017-06-26T11:58:43.453Z,1025.2
2017-06-26T11:59:43.455Z,1025.34
2017-06-26T12:00:43.457Z,1025.4
2017-06-26T12:01:43.459Z,1025.36
2017-06-26T12:02:43.462Z,1025.29
2017-06-26T12:03:43.463Z,1025.12
2017-06-26T12:04:43.463Z,1025.09
2017-06-26T12:05:43.467Z,1025.06
2017-06-26T12:06:43.467Z,1025
2017-06-26T12:07:43.469Z,1025.07
2017-06-26T12:08:43.471Z,1024.99